sensor_id;sensor_type;location;lat;lon;timestamp;P1;durP1;ratioP1;P2;durP2;ratioP2
2039;SDS011;1025;42.686;23.350;2023-09-19T00:00:30;4.60;;;4.20;;
2039;SDS011;1025;42.686;23.350;2023-09-19T00:02:59;4.73;;;4.33;;
2039;SDS011;1025;42.686;23.350;2023-09-19T00:05:27;4.10;;;3.57;;
2039;SDS011;1025;42.686;23.350;2023-09-19T00:07:55;4.40;;;4.00;;
2039;SDS011;1025;42.686;23.350;2023-09-19T00:10:23;4.40;;;4.00;;
2039;SDS011;1025;42.686;23.350;2023-09-19T00:12:51;4.83;;;4.40;;
2039;SDS011;1025;42.686;23.350;2023-09-19T00:15:20;4.83;;;4.03;;
2039;SDS011;1025;42.686;23.350;2023-09-19T00:17:46;7.33;;;4.73;;
2039;SDS011;1025;42.686;23.350;2023-09-19T00:20:13;4.90;;;4.50;;
2039;SDS011;1025;42.686;23.350;2023-09-19T00:22:44;7.70;;;4.87;;
2039;SDS011;1025;42.686;23.350;2023-09-19T00:25:10;4.97;;;4.57;;
2039;SDS011;1025;42.686;23.350;2023-09-19T00:27:37;5.30;;;4.70;;
2039;SDS011;1025;42.686;23.350;2023-09-19T00:30:07;4.43;;;4.13;;
2039;SDS011;1025;42.686;23.350;2023-09-19T00:32:39;5.03;;;4.50;;
2039;SDS011;1025;42.686;23.350;2023-09-19T00:35:06;5.60;;;5.00;;
2039;SDS011;1025;42.686;23.350;2023-09-19T00:37:33;5.10;;;4.40;;
2039;SDS011;1025;42.686;23.350;2023-09-19T00:40:02;4.77;;;4.20;;
2039;SDS011;1025;42.686;23.350;2023-09-19T00:42:30;4.97;;;4.57;;
2039;SDS011;1025;42.686;23.350;2023-09-19T00:44:58;5.40;;;4.50;;
2039;SDS011;1025;42.686;23.350;2023-09-19T00:47:28;7.33;;;5.10;;
2039;SDS011;1025;42.686;23.350;2023-09-19T00:49:55;6.67;;;4.27;;
2039;SDS011;1025;42.686;23.350;2023-09-19T00:52:21;5.23;;;4.73;;
2039;SDS011;1025;42.686;23.350;2023-09-19T00:54:48;5.40;;;5.00;;
2039;SDS011;1025;42.686;23.350;2023-09-19T00:57:16;4.93;;;4.53;;
2039;SDS011;1025;42.686;23.350;2023-09-19T00:59:44;5.30;;;4.80;;
2039;SDS011;1025;42.686;23.350;2023-09-19T01:02:11;5.77;;;5.30;;
2039;SDS011;1025;42.686;23.350;2023-09-19T01:04:39;7.50;;;5.37;;
2039;SDS011;1025;42.686;23.350;2023-09-19T01:07:06;5.37;;;4.90;;
2039;SDS011;1025;42.686;23.350;2023-09-19T01:09:33;6.67;;;6.00;;
2039;SDS011;1025;42.686;23.350;2023-09-19T01:12:00;8.17;;;5.00;;
2039;SDS011;1025;42.686;23.350;2023-09-19T01:14:31;5.87;;;5.20;;
2039;SDS011;1025;42.686;23.350;2023-09-19T01:17:03;6.20;;;5.60;;
2039;SDS011;1025;42.686;23.350;2023-09-19T01:19:42;6.57;;;6.03;;
2039;SDS011;1025;42.686;23.350;2023-09-19T01:22:16;6.93;;;6.10;;
2039;SDS011;1025;42.686;23.350;2023-09-19T01:25:04;9.87;;;5.70;;
2039;SDS011;1025;42.686;23.350;2023-09-19T01:27:44;6.47;;;5.87;;
2039;SDS011;1025;42.686;23.350;2023-09-19T01:30:17;8.73;;;6.43;;
2039;SDS011;1025;42.686;23.350;2023-09-19T01:32:44;7.70;;;5.70;;
2039;SDS011;1025;42.686;23.350;2023-09-19T01:35:11;6.30;;;5.80;;
2039;SDS011;1025;42.686;23.350;2023-09-19T01:37:38;7.50;;;6.90;;
2039;SDS011;1025;42.686;23.350;2023-09-19T01:40:09;7.30;;;6.40;;
2039;SDS011;1025;42.686;23.350;2023-09-19T01:42:43;7.30;;;6.70;;
2039;SDS011;1025;42.686;23.350;2023-09-19T01:45:12;8.97;;;6.40;;
2039;SDS011;1025;42.686;23.350;2023-09-19T01:47:43;7.10;;;6.50;;
2039;SDS011;1025;42.686;23.350;2023-09-19T01:50:13;5.67;;;5.17;;
2039;SDS011;1025;42.686;23.350;2023-09-19T01:52:46;11.60;;;5.83;;
2039;SDS011;1025;42.686;23.350;2023-09-19T01:55:13;10.17;;;6.50;;
2039;SDS011;1025;42.686;23.350;2023-09-19T01:57:44;6.90;;;6.30;;
2039;SDS011;1025;42.686;23.350;2023-09-19T02:00:13;7.80;;;6.70;;
2039;SDS011;1025;42.686;23.350;2023-09-19T02:02:43;7.77;;;5.90;;
2039;SDS011;1025;42.686;23.350;2023-09-19T02:05:10;7.63;;;6.63;;
2039;SDS011;1025;42.686;23.350;2023-09-19T02:07:38;8.03;;;6.00;;
2039;SDS011;1025;42.686;23.350;2023-09-19T02:10:05;8.97;;;6.90;;
2039;SDS011;1025;42.686;23.350;2023-09-19T02:12:35;7.47;;;6.77;;
2039;SDS011;1025;42.686;23.350;2023-09-19T02:15:01;6.43;;;5.37;;
2039;SDS011;1025;42.686;23.350;2023-09-19T02:17:28;7.13;;;6.50;;
2039;SDS011;1025;42.686;23.350;2023-09-19T02:19:57;7.53;;;6.20;;
2039;SDS011;1025;42.686;23.350;2023-09-19T02:22:26;7.53;;;6.90;;
2039;SDS011;1025;42.686;23.350;2023-09-19T02:24:53;7.40;;;5.50;;
2039;SDS011;1025;42.686;23.350;2023-09-19T02:27:19;7.37;;;6.77;;
2039;SDS011;1025;42.686;23.350;2023-09-19T02:29:46;6.33;;;5.73;;
2039;SDS011;1025;42.686;23.350;2023-09-19T02:32:14;6.53;;;5.93;;
2039;SDS011;1025;42.686;23.350;2023-09-19T02:34:43;6.63;;;5.90;;
2039;SDS011;1025;42.686;23.350;2023-09-19T02:37:11;5.87;;;5.30;;
2039;SDS011;1025;42.686;23.350;2023-09-19T02:39:38;5.90;;;5.50;;
2039;SDS011;1025;42.686;23.350;2023-09-19T02:42:05;6.07;;;5.47;;
2039;SDS011;1025;42.686;23.350;2023-09-19T02:44:32;5.33;;;4.93;;
2039;SDS011;1025;42.686;23.350;2023-09-19T02:46:59;17.53;;;6.70;;
2039;SDS011;1025;42.686;23.350;2023-09-19T02:49:25;7.63;;;6.93;;
2039;SDS011;1025;42.686;23.350;2023-09-19T02:51:52;7.60;;;5.47;;
2039;SDS011;1025;42.686;23.350;2023-09-19T02:54:20;7.33;;;6.63;;
2039;SDS011;1025;42.686;23.350;2023-09-19T02:56:47;6.93;;;5.73;;
2039;SDS011;1025;42.686;23.350;2023-09-19T02:59:13;6.07;;;5.57;;
2039;SDS011;1025;42.686;23.350;2023-09-19T03:01:42;7.77;;;6.40;;
2039;SDS011;1025;42.686;23.350;2023-09-19T03:04:09;7.70;;;7.00;;
2039;SDS011;1025;42.686;23.350;2023-09-19T03:06:36;6.93;;;6.10;;
2039;SDS011;1025;42.686;23.350;2023-09-19T03:09:03;8.97;;;7.10;;
2039;SDS011;1025;42.686;23.350;2023-09-19T03:11:38;7.40;;;6.80;;
2039;SDS011;1025;42.686;23.350;2023-09-19T03:14:05;7.13;;;6.53;;
2039;SDS011;1025;42.686;23.350;2023-09-19T03:16:31;6.83;;;6.27;;
2039;SDS011;1025;42.686;23.350;2023-09-19T03:18:58;6.17;;;5.57;;
2039;SDS011;1025;42.686;23.350;2023-09-19T03:21:25;7.67;;;6.03;;
2039;SDS011;1025;42.686;23.350;2023-09-19T03:23:51;6.10;;;5.60;;
2039;SDS011;1025;42.686;23.350;2023-09-19T03:26:18;6.40;;;5.80;;
2039;SDS011;1025;42.686;23.350;2023-09-19T03:28:46;8.73;;;7.13;;
2039;SDS011;1025;42.686;23.350;2023-09-19T03:31:12;7.30;;;6.60;;
2039;SDS011;1025;42.686;23.350;2023-09-19T03:33:39;6.60;;;6.10;;
2039;SDS011;1025;42.686;23.350;2023-09-19T03:36:05;7.40;;;6.70;;
2039;SDS011;1025;42.686;23.350;2023-09-19T03:38:32;10.60;;;7.47;;
2039;SDS011;1025;42.686;23.350;2023-09-19T03:40:59;7.27;;;6.67;;
2039;SDS011;1025;42.686;23.350;2023-09-19T03:43:26;7.00;;;6.30;;
2039;SDS011;1025;42.686;23.350;2023-09-19T03:45:55;6.97;;;6.37;;
2039;SDS011;1025;42.686;23.350;2023-09-19T03:48:22;25.97;;;7.90;;
2039;SDS011;1025;42.686;23.350;2023-09-19T03:50:49;8.37;;;6.77;;
2039;SDS011;1025;42.686;23.350;2023-09-19T03:53:16;8.20;;;7.40;;
2039;SDS011;1025;42.686;23.350;2023-09-19T03:55:44;8.73;;;7.93;;
2039;SDS011;1025;42.686;23.350;2023-09-19T03:58:10;10.07;;;9.07;;
2039;SDS011;1025;42.686;23.350;2023-09-19T04:00:37;14.27;;;9.63;;
2039;SDS011;1025;42.686;23.350;2023-09-19T04:03:05;11.80;;;9.33;;
2039;SDS011;1025;42.686;23.350;2023-09-19T04:05:32;14.60;;;11.70;;
2039;SDS011;1025;42.686;23.350;2023-09-19T04:07:59;12.53;;;9.97;;
2039;SDS011;1025;42.686;23.350;2023-09-19T04:10:26;9.50;;;8.60;;
2039;SDS011;1025;42.686;23.350;2023-09-19T04:12:53;15.20;;;11.53;;
2039;SDS011;1025;42.686;23.350;2023-09-19T04:15:20;9.30;;;8.40;;
2039;SDS011;1025;42.686;23.350;2023-09-19T04:17:48;9.73;;;7.53;;
2039;SDS011;1025;42.686;23.350;2023-09-19T04:20:16;14.40;;;7.63;;
2039;SDS011;1025;42.686;23.350;2023-09-19T04:22:44;12.03;;;9.53;;
2039;SDS011;1025;42.686;23.350;2023-09-19T04:25:11;8.70;;;7.10;;
2039;SDS011;1025;42.686;23.350;2023-09-19T04:27:37;8.20;;;7.43;;
2039;SDS011;1025;42.686;23.350;2023-09-19T04:30:05;7.97;;;7.17;;
2039;SDS011;1025;42.686;23.350;2023-09-19T04:32:35;12.13;;;5.90;;
2039;SDS011;1025;42.686;23.350;2023-09-19T04:35:04;7.30;;;6.60;;
2039;SDS011;1025;42.686;23.350;2023-09-19T04:37:34;8.90;;;6.37;;
2039;SDS011;1025;42.686;23.350;2023-09-19T04:40:01;9.60;;;7.83;;
2039;SDS011;1025;42.686;23.350;2023-09-19T04:42:29;6.57;;;5.97;;
2039;SDS011;1025;42.686;23.350;2023-09-19T04:44:56;9.60;;;6.43;;
2039;SDS011;1025;42.686;23.350;2023-09-19T04:47:25;6.13;;;5.60;;
2039;SDS011;1025;42.686;23.350;2023-09-19T04:49:51;6.93;;;5.40;;
2039;SDS011;1025;42.686;23.350;2023-09-19T04:52:18;6.40;;;5.80;;
2039;SDS011;1025;42.686;23.350;2023-09-19T04:54:46;13.97;;;6.63;;
2039;SDS011;1025;42.686;23.350;2023-09-19T04:57:13;6.57;;;5.93;;
2039;SDS011;1025;42.686;23.350;2023-09-19T04:59:40;8.00;;;7.03;;
2039;SDS011;1025;42.686;23.350;2023-09-19T05:02:06;8.07;;;5.67;;
2039;SDS011;1025;42.686;23.350;2023-09-19T05:04:33;7.03;;;6.30;;
2039;SDS011;1025;42.686;23.350;2023-09-19T05:07:00;6.33;;;5.83;;
2039;SDS011;1025;42.686;23.350;2023-09-19T05:09:28;7.50;;;6.13;;
2039;SDS011;1025;42.686;23.350;2023-09-19T05:11:56;7.17;;;6.40;;
2039;SDS011;1025;42.686;23.350;2023-09-19T05:14:23;7.85;;;5.28;;
2039;SDS011;1025;42.686;23.350;2023-09-19T05:16:50;6.37;;;5.73;;
2039;SDS011;1025;42.686;23.350;2023-09-19T05:19:17;8.50;;;6.30;;
2039;SDS011;1025;42.686;23.350;2023-09-19T05:21:43;7.70;;;6.97;;
2039;SDS011;1025;42.686;23.350;2023-09-19T05:24:10;5.67;;;5.13;;
2039;SDS011;1025;42.686;23.350;2023-09-19T05:26:37;6.40;;;5.43;;
2039;SDS011;1025;42.686;23.350;2023-09-19T05:29:06;6.20;;;5.60;;
2039;SDS011;1025;42.686;23.350;2023-09-19T05:31:33;5.53;;;4.97;;
2039;SDS011;1025;42.686;23.350;2023-09-19T05:34:01;8.30;;;7.47;;
2039;SDS011;1025;42.686;23.350;2023-09-19T05:36:28;4.97;;;4.57;;
2039;SDS011;1025;42.686;23.350;2023-09-19T05:38:55;6.97;;;5.47;;
2039;SDS011;1025;42.686;23.350;2023-09-19T05:41:21;7.63;;;6.00;;
2039;SDS011;1025;42.686;23.350;2023-09-19T05:43:48;6.00;;;5.40;;
2039;SDS011;1025;42.686;23.350;2023-09-19T05:46:16;4.97;;;4.63;;
2039;SDS011;1025;42.686;23.350;2023-09-19T05:48:43;5.17;;;4.67;;
2039;SDS011;1025;42.686;23.350;2023-09-19T05:51:13;10.00;;;5.60;;
2039;SDS011;1025;42.686;23.350;2023-09-19T05:53:39;9.40;;;6.90;;
2039;SDS011;1025;42.686;23.350;2023-09-19T05:56:08;4.47;;;4.00;;
2039;SDS011;1025;42.686;23.350;2023-09-19T05:58:36;7.83;;;4.50;;
2039;SDS011;1025;42.686;23.350;2023-09-19T06:01:03;4.67;;;4.23;;
2039;SDS011;1025;42.686;23.350;2023-09-19T06:03:33;12.90;;;5.20;;
2039;SDS011;1025;42.686;23.350;2023-09-19T06:06:00;11.33;;;5.57;;
2039;SDS011;1025;42.686;23.350;2023-09-19T06:08:27;18.10;;;6.13;;
2039;SDS011;1025;42.686;23.350;2023-09-19T06:10:54;9.67;;;5.83;;
2039;SDS011;1025;42.686;23.350;2023-09-19T06:13:21;8.03;;;5.13;;
2039;SDS011;1025;42.686;23.350;2023-09-19T06:15:48;11.00;;;5.83;;
2039;SDS011;1025;42.686;23.350;2023-09-19T06:18:15;5.77;;;4.40;;
2039;SDS011;1025;42.686;23.350;2023-09-19T06:20:46;7.13;;;5.73;;
2039;SDS011;1025;42.686;23.350;2023-09-19T06:23:12;10.03;;;5.03;;
2039;SDS011;1025;42.686;23.350;2023-09-19T06:25:39;5.23;;;4.83;;
2039;SDS011;1025;42.686;23.350;2023-09-19T06:28:06;6.30;;;5.20;;
2039;SDS011;1025;42.686;23.350;2023-09-19T06:30:35;8.23;;;5.20;;
2039;SDS011;1025;42.686;23.350;2023-09-19T06:33:05;6.80;;;5.17;;
2039;SDS011;1025;42.686;23.350;2023-09-19T06:35:32;5.93;;;4.33;;
2039;SDS011;1025;42.686;23.350;2023-09-19T06:38:01;3.73;;;3.43;;
2039;SDS011;1025;42.686;23.350;2023-09-19T06:40:28;8.40;;;6.13;;
2039;SDS011;1025;42.686;23.350;2023-09-19T06:42:56;5.10;;;4.60;;
2039;SDS011;1025;42.686;23.350;2023-09-19T06:45:23;5.43;;;4.93;;
2039;SDS011;1025;42.686;23.350;2023-09-19T06:47:52;10.80;;;4.70;;
2039;SDS011;1025;42.686;23.350;2023-09-19T06:50:22;5.00;;;4.60;;
2039;SDS011;1025;42.686;23.350;2023-09-19T06:52:50;4.60;;;3.83;;
2039;SDS011;1025;42.686;23.350;2023-09-19T06:55:18;4.60;;;3.83;;
2039;SDS011;1025;42.686;23.350;2023-09-19T06:57:45;6.80;;;5.17;;
2039;SDS011;1025;42.686;23.350;2023-09-19T07:00:12;4.53;;;4.13;;
2039;SDS011;1025;42.686;23.350;2023-09-19T07:02:43;10.87;;;5.77;;
2039;SDS011;1025;42.686;23.350;2023-09-19T07:05:10;8.03;;;4.83;;
2039;SDS011;1025;42.686;23.350;2023-09-19T07:07:36;5.03;;;4.63;;
2039;SDS011;1025;42.686;23.350;2023-09-19T07:10:04;7.93;;;5.50;;
2039;SDS011;1025;42.686;23.350;2023-09-19T07:12:32;7.77;;;5.90;;
2039;SDS011;1025;42.686;23.350;2023-09-19T07:14:59;14.53;;;7.67;;
2039;SDS011;1025;42.686;23.350;2023-09-19T07:17:25;6.03;;;5.30;;
2039;SDS011;1025;42.686;23.350;2023-09-19T07:19:52;5.03;;;4.23;;
2039;SDS011;1025;42.686;23.350;2023-09-19T07:22:19;4.10;;;3.70;;
2039;SDS011;1025;42.686;23.350;2023-09-19T07:24:45;5.73;;;5.20;;
2039;SDS011;1025;42.686;23.350;2023-09-19T07:27:14;6.37;;;4.70;;
2039;SDS011;1025;42.686;23.350;2023-09-19T07:29:42;7.17;;;6.20;;
2039;SDS011;1025;42.686;23.350;2023-09-19T07:32:10;4.80;;;3.73;;
2039;SDS011;1025;42.686;23.350;2023-09-19T07:34:37;4.80;;;4.30;;
2039;SDS011;1025;42.686;23.350;2023-09-19T07:37:04;4.53;;;4.10;;
2039;SDS011;1025;42.686;23.350;2023-09-19T07:39:30;13.33;;;5.53;;
2039;SDS011;1025;42.686;23.350;2023-09-19T07:41:57;8.97;;;5.93;;
2039;SDS011;1025;42.686;23.350;2023-09-19T07:44:23;5.10;;;4.60;;
2039;SDS011;1025;42.686;23.350;2023-09-19T07:46:52;7.50;;;6.03;;
2039;SDS011;1025;42.686;23.350;2023-09-19T07:49:20;5.13;;;4.60;;
2039;SDS011;1025;42.686;23.350;2023-09-19T07:51:46;6.17;;;5.57;;
2039;SDS011;1025;42.686;23.350;2023-09-19T07:54:13;3.57;;;3.10;;
2039;SDS011;1025;42.686;23.350;2023-09-19T07:56:40;7.40;;;4.40;;
2039;SDS011;1025;42.686;23.350;2023-09-19T07:59:06;5.93;;;4.10;;
2039;SDS011;1025;42.686;23.350;2023-09-19T08:01:33;16.73;;;8.47;;
2039;SDS011;1025;42.686;23.350;2023-09-19T08:04:02;6.77;;;5.20;;
2039;SDS011;1025;42.686;23.350;2023-09-19T08:06:28;7.73;;;6.00;;
2039;SDS011;1025;42.686;23.350;2023-09-19T08:08:55;11.43;;;5.37;;
2039;SDS011;1025;42.686;23.350;2023-09-19T08:11:22;6.70;;;4.60;;
2039;SDS011;1025;42.686;23.350;2023-09-19T08:13:49;6.30;;;3.43;;
2039;SDS011;1025;42.686;23.350;2023-09-19T08:16:16;8.33;;;5.00;;
2039;SDS011;1025;42.686;23.350;2023-09-19T08:18:46;4.60;;;4.30;;
2039;SDS011;1025;42.686;23.350;2023-09-19T08:21:14;9.40;;;4.77;;
2039;SDS011;1025;42.686;23.350;2023-09-19T08:23:41;4.47;;;4.17;;
2039;SDS011;1025;42.686;23.350;2023-09-19T08:26:08;5.00;;;4.00;;
2039;SDS011;1025;42.686;23.350;2023-09-19T08:28:35;9.40;;;5.03;;
2039;SDS011;1025;42.686;23.350;2023-09-19T08:31:02;5.00;;;4.23;;
2039;SDS011;1025;42.686;23.350;2023-09-19T08:33:31;8.33;;;5.63;;
2039;SDS011;1025;42.686;23.350;2023-09-19T08:35:58;6.47;;;4.60;;
2039;SDS011;1025;42.686;23.350;2023-09-19T08:38:25;5.10;;;4.60;;
2039;SDS011;1025;42.686;23.350;2023-09-19T08:40:56;4.87;;;4.47;;
2039;SDS011;1025;42.686;23.350;2023-09-19T08:43:23;7.23;;;5.97;;
2039;SDS011;1025;42.686;23.350;2023-09-19T08:45:50;9.03;;;5.13;;
2039;SDS011;1025;42.686;23.350;2023-09-19T08:48:17;5.27;;;4.77;;
2039;SDS011;1025;42.686;23.350;2023-09-19T08:50:49;4.93;;;4.53;;
2039;SDS011;1025;42.686;23.350;2023-09-19T08:53:20;5.10;;;4.70;;
2039;SDS011;1025;42.686;23.350;2023-09-19T08:55:50;15.53;;;5.47;;
2039;SDS011;1025;42.686;23.350;2023-09-19T08:58:19;12.17;;;5.03;;
2039;SDS011;1025;42.686;23.350;2023-09-19T09:00:46;6.30;;;4.87;;
2039;SDS011;1025;42.686;23.350;2023-09-19T09:03:14;6.30;;;4.40;;
2039;SDS011;1025;42.686;23.350;2023-09-19T09:05:41;7.87;;;5.93;;
2039;SDS011;1025;42.686;23.350;2023-09-19T09:08:11;10.73;;;4.67;;
2039;SDS011;1025;42.686;23.350;2023-09-19T09:10:38;7.63;;;4.37;;
2039;SDS011;1025;42.686;23.350;2023-09-19T09:13:07;5.97;;;5.47;;
2039;SDS011;1025;42.686;23.350;2023-09-19T09:15:34;4.70;;;4.30;;
2039;SDS011;1025;42.686;23.350;2023-09-19T09:18:01;6.20;;;4.50;;
2039;SDS011;1025;42.686;23.350;2023-09-19T09:20:30;17.20;;;7.70;;
2039;SDS011;1025;42.686;23.350;2023-09-19T09:22:57;7.53;;;5.13;;
2039;SDS011;1025;42.686;23.350;2023-09-19T09:25:46;9.93;;;5.10;;
2039;SDS011;1025;42.686;23.350;2023-09-19T09:28:14;5.40;;;4.90;;
2039;SDS011;1025;42.686;23.350;2023-09-19T09:30:45;10.43;;;7.80;;
2039;SDS011;1025;42.686;23.350;2023-09-19T09:33:11;14.43;;;6.40;;
2039;SDS011;1025;42.686;23.350;2023-09-19T09:35:46;5.70;;;4.47;;
2039;SDS011;1025;42.686;23.350;2023-09-19T09:38:13;7.93;;;4.57;;
2039;SDS011;1025;42.686;23.350;2023-09-19T09:40:47;7.40;;;5.37;;
2039;SDS011;1025;42.686;23.350;2023-09-19T09:43:31;5.00;;;4.50;;
2039;SDS011;1025;42.686;23.350;2023-09-19T09:46:08;6.47;;;4.53;;
2039;SDS011;1025;42.686;23.350;2023-09-19T09:48:57;6.67;;;5.03;;
2039;SDS011;1025;42.686;23.350;2023-09-19T09:51:37;11.77;;;5.90;;
2039;SDS011;1025;42.686;23.350;2023-09-19T09:54:10;5.17;;;4.60;;
2039;SDS011;1025;42.686;23.350;2023-09-19T09:56:51;6.73;;;6.10;;
2039;SDS011;1025;42.686;23.350;2023-09-19T09:59:19;7.87;;;4.60;;
2039;SDS011;1025;42.686;23.350;2023-09-19T10:01:49;4.90;;;4.30;;
2039;SDS011;1025;42.686;23.350;2023-09-19T10:04:26;6.80;;;4.00;;
2039;SDS011;1025;42.686;23.350;2023-09-19T10:06:54;8.17;;;4.23;;
2039;SDS011;1025;42.686;23.350;2023-09-19T10:09:20;4.50;;;4.20;;
2039;SDS011;1025;42.686;23.350;2023-09-19T10:12:00;4.03;;;3.70;;
2039;SDS011;1025;42.686;23.350;2023-09-19T10:14:30;7.13;;;4.23;;
2039;SDS011;1025;42.686;23.350;2023-09-19T10:16:58;5.13;;;4.50;;
2039;SDS011;1025;42.686;23.350;2023-09-19T10:19:29;6.97;;;5.03;;
2039;SDS011;1025;42.686;23.350;2023-09-19T10:21:59;4.03;;;3.77;;
2039;SDS011;1025;42.686;23.350;2023-09-19T10:24:27;4.13;;;3.83;;
2039;SDS011;1025;42.686;23.350;2023-09-19T10:26:56;6.93;;;5.43;;
2039;SDS011;1025;42.686;23.350;2023-09-19T10:29:23;6.00;;;4.60;;
2039;SDS011;1025;42.686;23.350;2023-09-19T10:31:52;6.13;;;4.83;;
2039;SDS011;1025;42.686;23.350;2023-09-19T10:34:19;14.17;;;5.33;;
2039;SDS011;1025;42.686;23.350;2023-09-19T10:36:47;9.03;;;5.03;;
2039;SDS011;1025;42.686;23.350;2023-09-19T10:39:15;14.53;;;4.73;;
2039;SDS011;1025;42.686;23.350;2023-09-19T10:41:47;4.73;;;4.23;;
2039;SDS011;1025;42.686;23.350;2023-09-19T10:44:18;6.73;;;4.93;;
2039;SDS011;1025;42.686;23.350;2023-09-19T10:46:46;5.30;;;4.80;;
2039;SDS011;1025;42.686;23.350;2023-09-19T10:49:14;4.93;;;4.20;;
2039;SDS011;1025;42.686;23.350;2023-09-19T10:51:41;4.00;;;3.70;;
2039;SDS011;1025;42.686;23.350;2023-09-19T10:54:08;5.20;;;4.70;;
2039;SDS011;1025;42.686;23.350;2023-09-19T10:56:38;4.30;;;3.90;;
2039;SDS011;1025;42.686;23.350;2023-09-19T10:59:12;7.23;;;5.57;;
2039;SDS011;1025;42.686;23.350;2023-09-19T11:01:42;5.73;;;5.00;;
2039;SDS011;1025;42.686;23.350;2023-09-19T11:07:02;7.70;;;4.60;;
2039;SDS011;1025;42.686;23.350;2023-09-19T11:09:48;6.13;;;5.53;;
2039;SDS011;1025;42.686;23.350;2023-09-19T11:15:06;4.63;;;4.23;;
2039;SDS011;1025;42.686;23.350;2023-09-19T11:17:36;6.37;;;5.77;;
2039;SDS011;1025;42.686;23.350;2023-09-19T11:25:58;5.10;;;4.17;;
2039;SDS011;1025;42.686;23.350;2023-09-19T11:28:31;6.93;;;5.23;;
2039;SDS011;1025;42.686;23.350;2023-09-19T11:30:57;6.50;;;5.60;;
2039;SDS011;1025;42.686;23.350;2023-09-19T11:33:24;8.93;;;5.97;;
2039;SDS011;1025;42.686;23.350;2023-09-19T11:35:59;9.87;;;7.83;;
2039;SDS011;1025;42.686;23.350;2023-09-19T11:44:30;6.13;;;4.80;;
2039;SDS011;1025;42.686;23.350;2023-09-19T11:46:51;5.70;;;4.80;;
2039;SDS011;1025;42.686;23.350;2023-09-19T11:49:18;11.90;;;6.13;;
2039;SDS011;1025;42.686;23.350;2023-09-19T11:51:50;5.87;;;5.27;;
2039;SDS011;1025;42.686;23.350;2023-09-19T11:54:17;7.33;;;6.70;;
2039;SDS011;1025;42.686;23.350;2023-09-19T11:56:48;6.70;;;4.97;;
2039;SDS011;1025;42.686;23.350;2023-09-19T11:59:20;6.90;;;4.87;;
2039;SDS011;1025;42.686;23.350;2023-09-19T12:01:50;9.70;;;6.40;;
2039;SDS011;1025;42.686;23.350;2023-09-19T12:04:22;9.33;;;5.30;;
2039;SDS011;1025;42.686;23.350;2023-09-19T12:07:02;5.10;;;4.60;;
2039;SDS011;1025;42.686;23.350;2023-09-19T12:09:29;5.50;;;5.03;;
2039;SDS011;1025;42.686;23.350;2023-09-19T12:11:56;5.20;;;4.80;;
2039;SDS011;1025;42.686;23.350;2023-09-19T12:14:25;6.70;;;5.00;;
2039;SDS011;1025;42.686;23.350;2023-09-19T12:16:53;5.27;;;4.67;;
2039;SDS011;1025;42.686;23.350;2023-09-19T12:19:21;5.20;;;4.80;;
2039;SDS011;1025;42.686;23.350;2023-09-19T12:21:55;6.30;;;5.70;;
2039;SDS011;1025;42.686;23.350;2023-09-19T12:24:23;6.40;;;5.50;;
2039;SDS011;1025;42.686;23.350;2023-09-19T12:26:52;8.87;;;5.70;;
2039;SDS011;1025;42.686;23.350;2023-09-19T12:29:19;5.97;;;5.40;;
2039;SDS011;1025;42.686;23.350;2023-09-19T12:31:53;5.70;;;5.20;;
2039;SDS011;1025;42.686;23.350;2023-09-19T12:34:23;5.77;;;4.90;;
2039;SDS011;1025;42.686;23.350;2023-09-19T12:39:40;5.60;;;5.00;;
2039;SDS011;1025;42.686;23.350;2023-09-19T12:42:08;7.70;;;4.87;;
2039;SDS011;1025;42.686;23.350;2023-09-19T12:44:35;7.53;;;5.10;;
2039;SDS011;1025;42.686;23.350;2023-09-19T12:47:09;6.70;;;4.87;;
2039;SDS011;1025;42.686;23.350;2023-09-19T12:49:36;4.67;;;4.27;;
2039;SDS011;1025;42.686;23.350;2023-09-19T12:52:23;7.10;;;4.97;;
2039;SDS011;1025;42.686;23.350;2023-09-19T12:54:51;9.00;;;5.10;;
2039;SDS011;1025;42.686;23.350;2023-09-19T12:57:23;5.47;;;4.97;;
2039;SDS011;1025;42.686;23.350;2023-09-19T12:59:51;7.03;;;6.43;;
2039;SDS011;1025;42.686;23.350;2023-09-19T13:02:19;7.53;;;6.73;;
2039;SDS011;1025;42.686;23.350;2023-09-19T13:04:52;6.43;;;4.90;;
2039;SDS011;1025;42.686;23.350;2023-09-19T13:10:03;5.53;;;4.97;;
2039;SDS011;1025;42.686;23.350;2023-09-19T13:12:36;5.50;;;5.00;;
2039;SDS011;1025;42.686;23.350;2023-09-19T13:15:07;5.50;;;4.40;;
2039;SDS011;1025;42.686;23.350;2023-09-19T13:17:43;6.13;;;5.40;;
2039;SDS011;1025;42.686;23.350;2023-09-19T13:20:20;6.47;;;4.60;;
2039;SDS011;1025;42.686;23.350;2023-09-19T13:22:47;4.50;;;4.20;;
2039;SDS011;1025;42.686;23.350;2023-09-19T13:25:18;10.30;;;5.93;;
2039;SDS011;1025;42.686;23.350;2023-09-19T13:27:45;10.67;;;9.50;;
2039;SDS011;1025;42.686;23.350;2023-09-19T13:30:13;5.33;;;4.93;;
2039;SDS011;1025;42.686;23.350;2023-09-19T13:32:40;5.80;;;4.50;;
2039;SDS011;1025;42.686;23.350;2023-09-19T13:35:09;5.07;;;4.67;;
2039;SDS011;1025;42.686;23.350;2023-09-19T13:37:38;5.37;;;4.70;;
2039;SDS011;1025;42.686;23.350;2023-09-19T13:40:06;8.73;;;5.30;;
2039;SDS011;1025;42.686;23.350;2023-09-19T13:42:33;7.70;;;4.90;;
2039;SDS011;1025;42.686;23.350;2023-09-19T13:45:01;4.87;;;4.47;;
2039;SDS011;1025;42.686;23.350;2023-09-19T13:47:29;5.10;;;4.70;;
2039;SDS011;1025;42.686;23.350;2023-09-19T13:49:56;5.53;;;5.03;;
2039;SDS011;1025;42.686;23.350;2023-09-19T13:52:24;6.30;;;5.30;;
2039;SDS011;1025;42.686;23.350;2023-09-19T13:54:53;5.83;;;5.33;;
2039;SDS011;1025;42.686;23.350;2023-09-19T13:57:21;5.63;;;5.13;;
2039;SDS011;1025;42.686;23.350;2023-09-19T13:59:48;4.83;;;4.53;;
2039;SDS011;1025;42.686;23.350;2023-09-19T14:02:14;4.87;;;4.53;;
2039;SDS011;1025;42.686;23.350;2023-09-19T14:04:43;4.70;;;4.40;;
2039;SDS011;1025;42.686;23.350;2023-09-19T14:07:10;5.50;;;4.67;;
2039;SDS011;1025;42.686;23.350;2023-09-19T14:09:38;5.30;;;4.90;;
2039;SDS011;1025;42.686;23.350;2023-09-19T14:12:05;10.33;;;6.73;;
2039;SDS011;1025;42.686;23.350;2023-09-19T14:14:32;6.37;;;5.67;;
2039;SDS011;1025;42.686;23.350;2023-09-19T14:16:58;5.57;;;5.07;;
2039;SDS011;1025;42.686;23.350;2023-09-19T14:19:26;5.27;;;4.70;;
2039;SDS011;1025;42.686;23.350;2023-09-19T14:21:52;5.07;;;4.57;;
2039;SDS011;1025;42.686;23.350;2023-09-19T14:24:20;8.20;;;5.37;;
2039;SDS011;1025;42.686;23.350;2023-09-19T14:26:48;5.10;;;4.60;;
2039;SDS011;1025;42.686;23.350;2023-09-19T14:29:15;4.43;;;4.13;;
2039;SDS011;1025;42.686;23.350;2023-09-19T14:31:42;9.30;;;5.40;;
2039;SDS011;1025;42.686;23.350;2023-09-19T14:34:09;5.30;;;4.87;;
2039;SDS011;1025;42.686;23.350;2023-09-19T14:36:36;4.90;;;4.50;;
2039;SDS011;1025;42.686;23.350;2023-09-19T14:39:03;5.70;;;5.30;;
2039;SDS011;1025;42.686;23.350;2023-09-19T14:41:30;5.77;;;5.40;;
2039;SDS011;1025;42.686;23.350;2023-09-19T14:43:58;6.47;;;5.40;;
2039;SDS011;1025;42.686;23.350;2023-09-19T14:46:25;5.17;;;4.67;;
2039;SDS011;1025;42.686;23.350;2023-09-19T14:48:51;6.33;;;5.70;;
2039;SDS011;1025;42.686;23.350;2023-09-19T14:51:18;5.33;;;4.83;;
2039;SDS011;1025;42.686;23.350;2023-09-19T14:53:45;5.03;;;4.63;;
2039;SDS011;1025;42.686;23.350;2023-09-19T14:56:12;5.30;;;4.90;;
2039;SDS011;1025;42.686;23.350;2023-09-19T14:58:43;6.50;;;5.90;;
2039;SDS011;1025;42.686;23.350;2023-09-19T15:01:11;5.83;;;4.87;;
2039;SDS011;1025;42.686;23.350;2023-09-19T15:03:38;5.50;;;5.00;;
2039;SDS011;1025;42.686;23.350;2023-09-19T15:06:06;9.80;;;6.43;;
2039;SDS011;1025;42.686;23.350;2023-09-19T15:08:34;8.10;;;5.30;;
2039;SDS011;1025;42.686;23.350;2023-09-19T15:11:03;7.97;;;7.17;;
2039;SDS011;1025;42.686;23.350;2023-09-19T15:13:30;6.87;;;5.67;;
2039;SDS011;1025;42.686;23.350;2023-09-19T15:16:00;7.40;;;5.30;;
2039;SDS011;1025;42.686;23.350;2023-09-19T15:18:28;5.03;;;4.63;;
2039;SDS011;1025;42.686;23.350;2023-09-19T15:20:56;6.07;;;5.47;;
2039;SDS011;1025;42.686;23.350;2023-09-19T15:23:22;5.13;;;4.63;;
2039;SDS011;1025;42.686;23.350;2023-09-19T15:25:49;5.33;;;4.90;;
2039;SDS011;1025;42.686;23.350;2023-09-19T15:28:16;5.30;;;4.90;;
2039;SDS011;1025;42.686;23.350;2023-09-19T15:30:42;5.73;;;5.23;;